createdAt,value
2017-11-14T00:00:43.757Z,14.65
2017-11-14T00:03:12.246Z,20.17
2017-11-14T00:05:40.772Z,11.70
2017-11-14T00:08:08.490Z,17.02
2017-11-14T00:10:36.966Z,11.27
2017-11-14T00:13:05.443Z,15.75
2017-11-14T00:15:33.928Z,17.48
2017-11-14T00:18:02.412Z,18.87
2017-11-14T00:20:30.887Z,15.98
2017-11-14T00:22:59.375Z,16.50
2017-11-14T00:25:27.874Z,12.27
2017-11-14T00:27:55.673Z,12.73
2017-11-14T00:30:24.174Z,13.57
2017-11-14T00:32:51.888Z,15.32
2017-11-14T00:35:19.620Z,15.18
2017-11-14T00:37:47.342Z,17.50
2017-11-14T00:40:15.059Z,19.08
2017-11-14T00:42:43.537Z,12.77
2017-11-14T00:45:12.028Z,16.30
2017-11-14T00:47:40.503Z,15.20
2017-11-14T00:50:08.998Z,18.45
2017-11-14T00:52:37.475Z,24.83
2017-11-14T00:55:05.981Z,17.30
2017-11-14T00:57:33.706Z,24.65
2017-11-14T01:00:02.198Z,20.02
2017-11-14T01:02:30.675Z,25.23
2017-11-14T01:04:59.201Z,27.42
2017-11-14T01:07:26.958Z,15.50
2017-11-14T01:09:54.684Z,16.23
2017-11-14T01:12:23.167Z,22.80
2017-11-14T01:14:51.663Z,16.80
2017-11-14T01:17:19.382Z,18.27
2017-11-14T01:19:47.107Z,19.95
2017-11-14T01:22:14.816Z,16.45
2017-11-14T01:24:42.532Z,22.73
2017-11-14T01:27:10.246Z,23.77
2017-11-14T01:29:37.967Z,18.12
2017-11-14T01:32:05.700Z,16.80
2017-11-14T01:34:34.207Z,18.27
2017-11-14T01:37:01.927Z,22.70
2017-11-14T01:39:29.696Z,17.98
2017-11-14T01:41:57.432Z,31.30
2017-11-14T01:44:25.156Z,15.13
2017-11-14T01:46:52.880Z,16.85
2017-11-14T01:49:20.620Z,12.00
2017-11-14T01:51:48.345Z,19.60
2017-11-14T01:54:16.073Z,12.95
2017-11-14T01:56:43.824Z,19.00
2017-11-14T01:59:11.552Z,17.50
2017-11-14T02:01:39.297Z,16.25
2017-11-14T02:04:07.813Z,17.15
2017-11-14T02:06:35.631Z,16.35
2017-11-14T02:09:04.186Z,15.05
2017-11-14T02:11:31.954Z,16.52
2017-11-14T02:13:59.743Z,25.95
2017-11-14T02:16:28.283Z,20.40
2017-11-14T02:18:56.039Z,16.33
2017-11-14T02:21:23.839Z,16.05
2017-11-14T02:23:51.632Z,20.05
2017-11-14T02:26:20.195Z,21.08
2017-11-14T02:28:47.979Z,16.40
2017-11-14T02:31:16.560Z,15.90
2017-11-14T02:33:45.113Z,30.62
2017-11-14T02:36:12.896Z,21.10
2017-11-14T02:38:40.698Z,19.87
2017-11-14T02:41:08.478Z,18.12
2017-11-14T02:43:36.256Z,21.40
2017-11-14T02:46:04.043Z,22.75
2017-11-14T02:48:31.791Z,15.55
2017-11-14T02:50:59.557Z,17.98
2017-11-14T02:53:27.327Z,17.90
2017-11-14T02:55:55.091Z,16.98
2017-11-14T02:58:22.812Z,19.45
2017-11-14T03:00:50.542Z,15.23
2017-11-14T03:03:18.288Z,14.73
2017-11-14T03:05:46.012Z,17.00
2017-11-14T03:08:13.731Z,15.60
2017-11-14T03:10:41.499Z,15.00
2017-11-14T03:13:09.264Z,17.85
2017-11-14T03:15:37.039Z,12.80
2017-11-14T03:18:04.792Z,12.10
2017-11-14T03:20:32.555Z,16.90
2017-11-14T03:23:00.305Z,17.80
2017-11-14T03:25:28.048Z,15.55
2017-11-14T03:27:55.777Z,13.48
2017-11-14T03:30:24.320Z,16.10
2017-11-14T03:32:52.083Z,14.00
2017-11-14T03:35:19.814Z,16.48
2017-11-14T03:37:47.586Z,15.63
2017-11-14T03:40:15.360Z,13.48
2017-11-14T03:42:43.106Z,12.80
2017-11-14T03:45:10.859Z,19.17
2017-11-14T03:47:38.615Z,17.73
2017-11-14T03:50:07.114Z,14.15
2017-11-14T03:52:34.874Z,18.23
2017-11-14T03:55:02.624Z,11.60
2017-11-14T03:57:31.111Z,15.90
2017-11-14T03:59:59.636Z,16.87
2017-11-14T04:02:27.415Z,13.43
2017-11-14T04:04:55.179Z,18.45
2017-11-14T04:07:22.955Z,22.40
2017-11-14T04:09:50.691Z,14.25
2017-11-14T04:12:18.467Z,11.80
2017-11-14T04:14:46.172Z,14.07
2017-11-14T04:17:14.647Z,14.65
2017-11-14T04:19:43.127Z,14.48
2017-11-14T04:22:11.611Z,19.58
2017-11-14T04:24:40.095Z,14.57
2017-11-14T04:27:08.567Z,16.87
2017-11-14T04:29:36.291Z,17.65
2017-11-14T04:32:04.044Z,15.05
2017-11-14T04:34:31.771Z,22.60
2017-11-14T04:37:00.248Z,17.40
2017-11-14T04:39:28.746Z,16.45
2017-11-14T04:41:57.231Z,19.80
2017-11-14T04:44:24.950Z,13.93
2017-11-14T04:46:52.668Z,15.40
2017-11-14T04:49:20.374Z,16.75
2017-11-14T04:51:48.100Z,15.73
2017-11-14T04:54:15.844Z,17.75
2017-11-14T04:56:44.337Z,15.43
2017-11-14T04:59:12.045Z,17.90
2017-11-14T05:01:39.762Z,16.55
2017-11-14T05:04:07.480Z,12.50
2017-11-14T05:06:35.185Z,15.98
2017-11-14T05:09:02.987Z,16.60
2017-11-14T05:11:30.710Z,13.68
2017-11-14T05:13:59.182Z,16.08
2017-11-14T05:16:34.815Z,21.65
2017-11-14T05:19:02.700Z,13.73
2017-11-14T05:21:31.185Z,17.65
2017-11-14T05:23:58.964Z,16.50
2017-11-14T05:26:26.708Z,21.12
2017-11-14T05:28:55.203Z,17.05
2017-11-14T05:31:23.694Z,29.10
2017-11-14T05:33:51.437Z,19.42
2017-11-14T05:36:19.925Z,19.65
2017-11-14T05:38:48.423Z,23.52
2017-11-14T05:41:16.162Z,18.00
2017-11-14T05:43:43.891Z,20.42
2017-11-14T05:46:11.763Z,21.33
2017-11-14T05:48:39.491Z,20.40
2017-11-14T05:51:07.233Z,21.17
2017-11-14T05:53:35.742Z,19.98
2017-11-14T05:56:03.474Z,20.90
2017-11-14T05:58:31.967Z,23.52
2017-11-14T06:01:00.465Z,23.10
2017-11-14T06:03:28.198Z,20.92
2017-11-14T06:05:56.692Z,18.27
2017-11-14T06:08:25.187Z,17.87
2017-11-14T06:10:52.938Z,23.12
2017-11-14T06:13:20.679Z,23.95
2017-11-14T06:15:48.454Z,25.27
2017-11-14T06:18:16.194Z,24.02
2017-11-14T06:20:43.923Z,20.90
2017-11-14T06:23:11.663Z,25.73
2017-11-14T06:25:40.152Z,17.35
2017-11-14T06:28:07.875Z,24.08
2017-11-14T06:30:35.603Z,21.10
2017-11-14T06:33:03.359Z,24.95
2017-11-14T06:35:31.082Z,27.15
2017-11-14T06:37:58.798Z,26.50
2017-11-14T06:40:26.524Z,16.10
2017-11-14T06:42:54.319Z,19.27
2017-11-14T06:45:22.050Z,20.12
2017-11-14T06:47:50.559Z,22.55
2017-11-14T06:50:18.314Z,18.15
2017-11-14T06:52:46.064Z,31.37
2017-11-14T06:55:14.551Z,24.55
2017-11-14T06:57:43.027Z,27.10
2017-11-14T07:00:11.555Z,23.83
2017-11-14T07:02:39.286Z,20.65
2017-11-14T07:05:07.053Z,26.90
2017-11-14T07:07:34.782Z,18.50
2017-11-14T07:10:02.507Z,18.98
2017-11-14T07:12:30.227Z,24.42
2017-11-14T07:14:58.718Z,16.20
2017-11-14T07:17:27.206Z,19.40
2017-11-14T07:19:54.923Z,17.62
2017-11-14T07:22:22.662Z,19.30
2017-11-14T07:24:50.388Z,18.25
2017-11-14T07:27:18.927Z,21.55
2017-11-14T07:29:46.672Z,17.48
2017-11-14T07:32:14.407Z,19.87
2017-11-14T07:34:42.151Z,19.87
2017-11-14T07:37:10.640Z,18.60
2017-11-14T07:39:39.123Z,18.48
2017-11-14T07:42:07.627Z,20.42
2017-11-14T07:44:35.365Z,17.65
2017-11-14T07:47:03.859Z,21.15
2017-11-14T07:49:32.362Z,20.17
2017-11-14T07:52:00.091Z,23.65
2017-11-14T07:54:28.579Z,21.85
2017-11-14T07:56:57.070Z,17.98
2017-11-14T07:59:25.556Z,19.10
2017-11-14T08:01:54.092Z,20.83
2017-11-14T08:04:21.845Z,18.52
2017-11-14T08:06:49.598Z,30.60
2017-11-14T08:09:17.351Z,23.98
2017-11-14T08:11:45.087Z,26.65
2017-11-14T08:14:13.591Z,21.83
2017-11-14T08:16:41.315Z,23.25
2017-11-14T08:19:09.034Z,21.02
2017-11-14T08:21:36.762Z,20.98
2017-11-14T08:24:05.247Z,18.08
2017-11-14T08:26:33.780Z,24.30
2017-11-14T08:29:01.497Z,25.80
2017-11-14T08:31:29.247Z,20.90
2017-11-14T08:33:57.780Z,20.33
2017-11-14T08:36:25.552Z,19.45
2017-11-14T08:38:53.307Z,24.10
2017-11-14T08:41:21.044Z,21.00
2017-11-14T08:43:48.800Z,20.77
2017-11-14T08:46:17.372Z,19.48
2017-11-14T08:48:45.876Z,19.40
2017-11-14T08:51:13.608Z,14.63
2017-11-14T08:53:41.340Z,15.98
2017-11-14T08:56:09.075Z,17.23
2017-11-14T08:58:36.879Z,17.65
2017-11-14T09:01:04.667Z,18.12
2017-11-14T09:03:32.416Z,24.98
2017-11-14T09:06:00.177Z,19.95
2017-11-14T09:08:27.935Z,16.60
2017-11-14T09:10:55.724Z,23.80
2017-11-14T09:13:23.526Z,19.95
2017-11-14T09:15:51.367Z,20.92
2017-11-14T09:18:20.009Z,16.23
2017-11-14T09:20:47.800Z,15.02
2017-11-14T09:23:15.584Z,15.20
2017-11-14T09:25:44.145Z,18.17
2017-11-14T09:28:11.943Z,19.73
2017-11-14T09:30:40.475Z,24.70
2017-11-14T09:33:08.260Z,19.12
2017-11-14T09:35:36.044Z,18.30
2017-11-14T09:38:04.612Z,17.52
2017-11-14T09:40:32.416Z,18.98
2017-11-14T09:43:00.243Z,15.93
2017-11-14T09:45:28.086Z,20.73
2017-11-14T09:47:55.887Z,18.35
2017-11-14T09:50:23.679Z,19.30
2017-11-14T09:52:51.487Z,22.02
2017-11-14T09:55:19.272Z,18.33
2017-11-14T09:57:47.072Z,24.35
2017-11-14T10:00:15.661Z,16.67
2017-11-14T10:02:43.432Z,19.05
2017-11-14T10:05:11.242Z,16.55
2017-11-14T10:07:39.017Z,27.95
2017-11-14T10:10:06.820Z,20.88
2017-11-14T10:12:35.395Z,19.62
2017-11-14T10:15:03.913Z,24.70
2017-11-14T10:17:31.699Z,18.25
2017-11-14T10:19:59.492Z,18.92
2017-11-14T10:22:28.071Z,20.92
2017-11-14T10:24:55.851Z,14.85
2017-11-14T10:27:24.420Z,15.55
2017-11-14T10:29:52.256Z,24.15
2017-11-14T10:32:20.036Z,22.30
2017-11-14T10:34:47.828Z,15.77
2017-11-14T10:37:15.620Z,19.80
2017-11-14T10:39:43.419Z,18.55
2017-11-14T10:42:11.218Z,20.50
2017-11-14T10:44:38.984Z,24.58
2017-11-14T10:47:06.771Z,17.20
2017-11-14T10:49:35.334Z,22.58
2017-11-14T10:52:03.098Z,19.85
2017-11-14T10:54:30.897Z,17.77
2017-11-14T10:56:58.716Z,24.00
2017-11-14T10:59:26.515Z,18.67
2017-11-14T11:01:55.076Z,15.63
2017-11-14T11:04:22.864Z,21.23
2017-11-14T11:06:51.440Z,17.27
2017-11-14T11:09:20.017Z,29.45
2017-11-14T11:11:48.588Z,19.08
2017-11-14T11:14:16.368Z,18.45
2017-11-14T11:16:44.144Z,22.90
2017-11-14T11:19:12.707Z,19.02
2017-11-14T11:21:40.523Z,22.20
2017-11-14T11:24:08.287Z,23.62
2017-11-14T11:26:36.071Z,18.87
2017-11-14T11:29:03.874Z,16.80
2017-11-14T11:31:31.654Z,17.10
2017-11-14T11:34:00.197Z,25.80
2017-11-14T11:36:27.991Z,23.52
2017-11-14T11:38:56.502Z,24.33
2017-11-14T11:41:24.282Z,18.10
2017-11-14T11:43:52.068Z,21.50
2017-11-14T11:46:19.876Z,17.85
2017-11-14T11:48:48.414Z,24.15
2017-11-14T11:51:16.194Z,16.00
2017-11-14T11:53:43.979Z,15.02
2017-11-14T11:56:11.773Z,19.50
2017-11-14T11:58:39.555Z,12.93
2017-11-14T12:01:07.340Z,21.17
2017-11-14T12:03:35.147Z,11.43
2017-11-14T12:06:02.976Z,15.18
2017-11-14T12:08:30.783Z,16.23
2017-11-14T12:10:59.347Z,22.30
2017-11-14T12:13:27.146Z,24.25
2017-11-14T12:15:55.709Z,10.65
2017-11-14T12:18:23.498Z,13.25
2017-11-14T12:20:52.065Z,17.10
2017-11-14T12:23:20.644Z,16.73
2017-11-14T12:25:49.207Z,14.15
2017-11-14T12:28:16.998Z,12.82
2017-11-14T12:30:45.556Z,11.00
2017-11-14T12:33:13.341Z,11.02
2017-11-14T12:35:41.115Z,11.30
2017-11-14T12:38:09.653Z,11.80
2017-11-14T12:40:37.385Z,9.80
2017-11-14T12:43:05.119Z,18.40
2017-11-14T12:45:32.904Z,12.25
2017-11-14T12:48:01.451Z,10.02
2017-11-14T12:50:29.198Z,10.75
2017-11-14T12:52:56.950Z,7.75
2017-11-14T12:55:24.692Z,13.45
2017-11-14T12:57:52.438Z,15.27
2017-11-14T13:00:20.987Z,15.20
2017-11-14T13:02:48.732Z,12.68
2017-11-14T13:05:16.465Z,12.63
2017-11-14T13:07:44.285Z,12.70
2017-11-14T13:10:12.068Z,9.77
2017-11-14T13:12:39.827Z,17.25
2017-11-14T13:15:07.607Z,10.88
2017-11-14T13:17:36.140Z,9.75
2017-11-14T13:20:03.926Z,9.35
2017-11-14T13:22:31.659Z,11.73
2017-11-14T13:24:59.398Z,19.08
2017-11-14T13:27:27.902Z,11.80
2017-11-14T13:29:55.634Z,9.68
2017-11-14T13:32:24.184Z,12.68
2017-11-14T13:34:51.920Z,12.50
2017-11-14T13:37:19.642Z,15.45
2017-11-14T13:39:48.142Z,9.82
2017-11-14T13:42:15.868Z,10.15
2017-11-14T13:44:43.610Z,11.12
2017-11-14T13:47:11.370Z,9.98
2017-11-14T13:49:39.870Z,8.77
2017-11-14T13:52:07.608Z,12.57
2017-11-14T13:54:35.324Z,12.70
2017-11-14T13:57:03.058Z,10.63
2017-11-14T13:59:30.797Z,20.15
2017-11-14T14:01:58.521Z,21.23
2017-11-14T14:04:27.024Z,11.85
2017-11-14T14:06:54.808Z,15.43
2017-11-14T14:09:22.544Z,24.23
2017-11-14T14:11:51.054Z,20.25
2017-11-14T14:14:18.811Z,17.30
2017-11-14T14:16:46.544Z,15.10
2017-11-14T14:19:15.022Z,28.92
2017-11-14T14:21:42.763Z,15.10
2017-11-14T14:24:10.481Z,19.10
2017-11-14T14:26:38.196Z,16.12
2017-11-14T14:29:05.922Z,23.08
2017-11-14T14:31:33.655Z,14.27
2017-11-14T14:34:02.156Z,26.98
2017-11-14T14:36:29.883Z,24.73
2017-11-14T14:38:57.606Z,12.35
2017-11-14T14:41:25.389Z,12.40
2017-11-14T14:43:53.121Z,11.63
2017-11-14T14:46:20.844Z,16.95
2017-11-14T14:48:48.567Z,18.65
2017-11-14T14:51:16.293Z,14.40
2017-11-14T14:53:44.787Z,12.93
2017-11-14T14:56:12.511Z,24.63
2017-11-14T14:58:40.244Z,19.50
2017-11-14T15:01:07.977Z,21.80
2017-11-14T15:03:35.686Z,18.48
2017-11-14T15:06:03.429Z,13.18
2017-11-14T15:08:31.148Z,21.35
2017-11-14T15:10:59.637Z,17.42
2017-11-14T15:13:27.353Z,13.68
2017-11-14T15:15:55.093Z,12.93
2017-11-14T15:18:22.825Z,22.20
2017-11-14T15:20:51.338Z,16.75
2017-11-14T15:23:19.047Z,25.65
2017-11-14T15:25:46.768Z,15.20
2017-11-14T15:28:14.497Z,18.50
2017-11-14T15:30:43.022Z,22.67
2017-11-14T15:33:10.752Z,25.17
2017-11-14T15:35:39.248Z,24.55
2017-11-14T15:38:06.985Z,21.33
2017-11-14T15:40:35.472Z,24.77
2017-11-14T15:43:03.973Z,29.63
2017-11-14T15:45:31.706Z,25.83
2017-11-14T15:47:59.430Z,24.12
2017-11-14T15:50:27.158Z,33.22
2017-11-14T15:52:54.918Z,37.83
2017-11-14T15:55:23.444Z,36.25
2017-11-14T15:57:51.180Z,41.53
2017-11-14T16:00:18.908Z,37.00
2017-11-14T16:02:47.405Z,31.35
2017-11-14T16:05:15.904Z,47.55
2017-11-14T16:07:43.631Z,35.03
2017-11-14T16:10:11.365Z,39.92
2017-11-14T16:12:39.111Z,44.13
2017-11-14T16:15:06.862Z,46.05
2017-11-14T16:17:34.590Z,40.15
2017-11-14T16:20:02.330Z,43.42
2017-11-14T16:22:30.116Z,34.95
2017-11-14T16:24:57.835Z,39.20
2017-11-14T16:27:25.587Z,37.67
2017-11-14T16:29:53.317Z,35.80
2017-11-14T16:32:21.064Z,46.50
2017-11-14T16:34:48.827Z,36.95
2017-11-14T16:37:16.571Z,45.50
2017-11-14T16:39:44.304Z,46.22
2017-11-14T16:42:12.114Z,33.13
2017-11-14T16:44:39.844Z,40.03
2017-11-14T16:47:07.581Z,28.75
2017-11-14T16:49:36.114Z,33.17
2017-11-14T16:52:03.902Z,34.30
2017-11-14T16:54:31.664Z,34.55
2017-11-14T16:56:59.411Z,47.05
2017-11-14T16:59:27.170Z,39.10
2017-11-14T17:01:54.908Z,54.33
2017-11-14T17:04:22.650Z,36.58
2017-11-14T17:06:51.172Z,37.72
2017-11-14T17:09:18.928Z,36.55
2017-11-14T17:11:46.700Z,42.55
2017-11-14T17:14:14.443Z,38.20
2017-11-14T17:16:42.185Z,37.50
2017-11-14T17:19:10.670Z,37.97
2017-11-14T17:21:39.172Z,39.05
2017-11-14T17:24:06.908Z,38.47
2017-11-14T17:26:34.628Z,43.15
2017-11-14T17:29:02.392Z,42.35
2017-11-14T17:31:30.120Z,37.45
2017-11-14T17:33:58.622Z,45.38
2017-11-14T17:36:26.354Z,36.22
2017-11-14T17:38:57.883Z,46.67
2017-11-14T17:41:25.609Z,48.40
2017-11-14T17:43:53.346Z,43.13
2017-11-14T17:46:21.845Z,39.08
2017-11-14T17:48:49.583Z,41.28
2017-11-14T17:51:18.075Z,44.15
2017-11-14T17:53:46.604Z,50.85
2017-11-14T17:56:14.321Z,39.83
2017-11-14T17:58:42.815Z,41.53
2017-11-14T18:01:10.591Z,42.15
2017-11-14T18:03:38.299Z,46.65
2017-11-14T18:06:06.019Z,46.42
2017-11-14T18:08:33.743Z,52.25
2017-11-14T18:11:01.503Z,46.35
2017-11-14T18:13:29.237Z,53.17
2017-11-14T18:15:56.973Z,47.70
2017-11-14T18:18:24.720Z,47.95
2017-11-14T18:20:53.206Z,44.28
2017-11-14T18:23:21.691Z,46.20
2017-11-14T18:25:49.417Z,44.78
2017-11-14T18:28:17.149Z,47.95
2017-11-14T18:30:44.877Z,45.60
2017-11-14T18:33:13.368Z,41.45
2017-11-14T18:35:41.092Z,43.40
2017-11-14T18:38:08.820Z,45.78
2017-11-14T18:40:36.537Z,49.10
2017-11-14T18:43:05.033Z,36.53
2017-11-14T18:45:33.538Z,40.67
2017-11-14T18:48:01.262Z,46.97
2017-11-14T18:50:29.812Z,45.50
2017-11-14T18:52:57.540Z,45.65
2017-11-14T18:55:25.288Z,53.80
2017-11-14T18:57:53.792Z,48.20
2017-11-14T19:00:21.520Z,50.53
2017-11-14T19:02:50.024Z,48.50
2017-11-14T19:05:17.760Z,49.28
2017-11-14T19:07:45.488Z,42.50
2017-11-14T19:10:13.232Z,45.80
2017-11-14T19:12:40.961Z,47.03
2017-11-14T19:15:09.457Z,50.35
2017-11-14T19:17:37.945Z,54.50
2017-11-14T19:20:05.670Z,46.00
2017-11-14T19:22:33.421Z,61.92
2017-11-14T19:25:01.146Z,54.55
2017-11-14T19:27:28.858Z,50.75
2017-11-14T19:29:56.619Z,47.53
2017-11-14T19:32:24.481Z,48.60
2017-11-14T19:34:52.352Z,50.83
2017-11-14T19:37:20.066Z,44.50
2017-11-14T19:39:47.787Z,57.42
2017-11-14T19:42:15.643Z,44.53
2017-11-14T19:44:43.359Z,57.55
2017-11-14T19:47:11.086Z,58.72
2017-11-14T19:49:38.831Z,46.75
2017-11-14T19:52:06.555Z,45.12
2017-11-14T19:54:34.274Z,46.80
2017-11-14T19:57:02.133Z,49.10
2017-11-14T19:59:30.002Z,48.55
2017-11-14T20:01:57.752Z,50.17
2017-11-14T20:04:25.466Z,47.20
2017-11-14T20:06:53.971Z,44.78
2017-11-14T20:09:21.763Z,41.20
2017-11-14T20:11:49.542Z,45.92
2017-11-14T20:14:17.406Z,53.28
2017-11-14T20:16:45.378Z,43.67
2017-11-14T20:19:13.179Z,47.58
2017-11-14T20:21:41.716Z,50.92
2017-11-14T20:24:09.443Z,40.35
2017-11-14T20:26:37.193Z,57.13
2017-11-14T20:29:04.933Z,53.00
2017-11-14T20:31:32.785Z,44.42
2017-11-14T20:34:00.652Z,53.83
2017-11-14T20:36:28.388Z,49.08
2017-11-14T20:38:56.111Z,48.97
2017-11-14T20:41:24.766Z,37.40
2017-11-14T20:43:52.636Z,45.55
2017-11-14T20:46:20.502Z,41.60
2017-11-14T20:48:48.290Z,50.17
2017-11-14T20:51:15.999Z,43.83
2017-11-14T20:53:43.897Z,48.38
2017-11-14T20:56:11.768Z,47.40
2017-11-14T20:58:39.641Z,51.65
2017-11-14T21:01:07.501Z,48.35
2017-11-14T21:03:35.376Z,46.67
2017-11-14T21:06:03.093Z,43.47
2017-11-14T21:08:30.897Z,47.55
2017-11-14T21:10:58.765Z,41.60
2017-11-14T21:13:26.499Z,48.72
2017-11-14T21:15:54.396Z,38.08
2017-11-14T21:18:22.114Z,42.15
2017-11-14T21:20:49.826Z,39.83
2017-11-14T21:23:17.580Z,33.03
2017-11-14T21:25:45.356Z,38.83
2017-11-14T21:28:13.220Z,46.80
2017-11-14T21:30:41.089Z,39.08
2017-11-14T21:33:08.956Z,35.92
2017-11-14T21:35:36.764Z,38.05
2017-11-14T21:38:10.212Z,44.15
2017-11-14T21:40:38.087Z,33.42
2017-11-14T21:43:05.954Z,36.53
2017-11-14T21:45:33.823Z,44.67
2017-11-14T21:48:01.691Z,41.05
2017-11-14T21:50:29.557Z,43.17
2017-11-14T21:52:57.424Z,41.00
2017-11-14T21:55:25.291Z,45.85
2017-11-14T21:57:53.100Z,42.33
2017-11-14T22:00:21.741Z,46.60
2017-11-14T22:02:49.611Z,32.97
2017-11-14T22:05:17.340Z,38.75
2017-11-14T22:07:45.140Z,47.08
2017-11-14T22:10:13.006Z,41.65
2017-11-14T22:12:40.749Z,41.37
2017-11-14T22:15:08.641Z,40.00
2017-11-14T22:17:36.506Z,45.80
2017-11-14T22:20:04.376Z,43.85
2017-11-14T22:22:32.240Z,40.72
2017-11-14T22:25:00.108Z,36.22
2017-11-14T22:27:27.840Z,41.17
2017-11-14T22:29:55.640Z,42.08
2017-11-14T22:32:23.506Z,38.35
2017-11-14T22:34:51.372Z,45.80
2017-11-14T22:37:19.167Z,46.03
2017-11-14T22:39:47.005Z,41.58
2017-11-14T22:42:14.883Z,35.75
2017-11-14T22:44:42.741Z,41.88
2017-11-14T22:47:10.607Z,35.22
2017-11-14T22:49:38.475Z,37.97
2017-11-14T22:52:06.342Z,34.00
2017-11-14T22:54:34.208Z,38.05
2017-11-14T22:57:02.081Z,41.35
2017-11-14T22:59:29.945Z,42.05
2017-11-14T23:01:57.814Z,40.97
2017-11-14T23:04:25.680Z,38.75
2017-11-14T23:06:53.547Z,41.55
2017-11-14T23:09:21.414Z,39.67
2017-11-14T23:11:49.286Z,40.10
2017-11-14T23:14:17.151Z,32.08
2017-11-14T23:16:45.018Z,38.58
2017-11-14T23:19:12.884Z,35.53
2017-11-14T23:21:40.750Z,36.35
2017-11-14T23:24:09.544Z,37.97
2017-11-14T23:26:37.410Z,41.60
2017-11-14T23:29:05.273Z,33.95
2017-11-14T23:31:33.142Z,43.50
2017-11-14T23:34:01.008Z,42.53
2017-11-14T23:36:28.876Z,43.38
2017-11-14T23:38:56.851Z,45.30
2017-11-14T23:41:24.713Z,43.58
2017-11-14T23:43:52.438Z,38.83
2017-11-14T23:46:20.174Z,40.03
2017-11-14T23:48:48.658Z,36.30
2017-11-14T23:51:17.157Z,38.83
2017-11-14T23:53:44.871Z,37.33
2017-11-14T23:56:12.734Z,43.67
2017-11-14T23:58:40.455Z,44.13
